sensor_id;sensor_type;location;lat;lon;timestamp;temperature;humidity
12604;DHT22;6367;52.508;13.284;2023-04-24T00:01:47;16.60;96.90
12604;DHT22;6367;52.508;13.284;2023-04-24T00:04:13;16.50;97.00
12604;DHT22;6367;52.508;13.284;2023-04-24T00:06:42;16.40;97.20
12604;DHT22;6367;52.508;13.284;2023-04-24T00:09:08;16.30;97.50
12604;DHT22;6367;52.508;13.284;2023-04-24T00:11:35;16.20;97.70
12604;DHT22;6367;52.508;13.284;2023-04-24T00:14:01;16.20;97.70
12604;DHT22;6367;52.508;13.284;2023-04-24T00:16:27;16.10;97.80
12604;DHT22;6367;52.508;13.284;2023-04-24T00:18:53;16.10;98.20
12604;DHT22;6367;52.508;13.284;2023-04-24T00:21:19;16.10;98.00
12604;DHT22;6367;52.508;13.284;2023-04-24T00:23:46;16.10;98.00
12604;DHT22;6367;52.508;13.284;2023-04-24T00:26:11;16.10;98.10
12604;DHT22;6367;52.508;13.284;2023-04-24T00:28:37;16.00;98.10
12604;DHT22;6367;52.508;13.284;2023-04-24T00:31:03;16.00;98.20
12604;DHT22;6367;52.508;13.284;2023-04-24T00:33:28;16.10;98.20
12604;DHT22;6367;52.508;13.284;2023-04-24T00:35:54;16.10;98.30
12604;DHT22;6367;52.508;13.284;2023-04-24T00:38:19;16.00;98.40
12604;DHT22;6367;52.508;13.284;2023-04-24T00:40:45;16.10;98.40
12604;DHT22;6367;52.508;13.284;2023-04-24T00:43:11;16.10;98.40
12604;DHT22;6367;52.508;13.284;2023-04-24T00:45:37;16.10;98.60
12604;DHT22;6367;52.508;13.284;2023-04-24T00:48:03;15.90;98.70
12604;DHT22;6367;52.508;13.284;2023-04-24T00:50:30;16.00;98.80
12604;DHT22;6367;52.508;13.284;2023-04-24T00:52:56;16.00;99.00
12604;DHT22;6367;52.508;13.284;2023-04-24T00:55:25;16.00;99.00
12604;DHT22;6367;52.508;13.284;2023-04-24T00:57:51;16.00;99.10
12604;DHT22;6367;52.508;13.284;2023-04-24T01:00:17;16.00;99.10
12604;DHT22;6367;52.508;13.284;2023-04-24T01:02:44;16.00;99.20
12604;DHT22;6367;52.508;13.284;2023-04-24T01:05:11;16.00;99.30
12604;DHT22;6367;52.508;13.284;2023-04-24T01:07:39;15.90;99.20
12604;DHT22;6367;52.508;13.284;2023-04-24T01:10:05;16.00;99.10
12604;DHT22;6367;52.508;13.284;2023-04-24T01:12:32;16.00;99.30
12604;DHT22;6367;52.508;13.284;2023-04-24T01:14:57;15.90;99.50
12604;DHT22;6367;52.508;13.284;2023-04-24T01:17:23;15.80;99.70
12604;DHT22;6367;52.508;13.284;2023-04-24T01:19:49;15.80;99.90
12604;DHT22;6367;52.508;13.284;2023-04-24T01:22:15;15.80;99.80
12604;DHT22;6367;52.508;13.284;2023-04-24T01:24:42;15.80;99.90
12604;DHT22;6367;52.508;13.284;2023-04-24T01:27:09;15.70;99.90
12604;DHT22;6367;52.508;13.284;2023-04-24T01:29:35;15.70;99.90
12604;DHT22;6367;52.508;13.284;2023-04-24T01:32:02;15.70;99.90
12604;DHT22;6367;52.508;13.284;2023-04-24T01:34:28;15.70;99.90
12604;DHT22;6367;52.508;13.284;2023-04-24T01:36:54;15.70;99.90
12604;DHT22;6367;52.508;13.284;2023-04-24T01:39:21;15.60;99.90
12604;DHT22;6367;52.508;13.284;2023-04-24T01:41:48;15.70;99.90
12604;DHT22;6367;52.508;13.284;2023-04-24T01:44:15;15.70;99.90
12604;DHT22;6367;52.508;13.284;2023-04-24T01:46:41;15.70;99.90
12604;DHT22;6367;52.508;13.284;2023-04-24T01:49:07;15.70;99.90
12604;DHT22;6367;52.508;13.284;2023-04-24T01:51:33;15.70;99.90
12604;DHT22;6367;52.508;13.284;2023-04-24T01:53:58;15.70;99.90
12604;DHT22;6367;52.508;13.284;2023-04-24T01:56:24;15.70;99.90
12604;DHT22;6367;52.508;13.284;2023-04-24T01:58:52;15.60;99.90
12604;DHT22;6367;52.508;13.284;2023-04-24T02:01:19;15.50;99.90
12604;DHT22;6367;52.508;13.284;2023-04-24T02:03:45;15.50;99.90
12604;DHT22;6367;52.508;13.284;2023-04-24T02:06:11;15.50;99.90
12604;DHT22;6367;52.508;13.284;2023-04-24T02:08:37;15.50;99.90
12604;DHT22;6367;52.508;13.284;2023-04-24T02:11:02;15.50;99.90
12604;DHT22;6367;52.508;13.284;2023-04-24T02:13:28;15.30;99.90
12604;DHT22;6367;52.508;13.284;2023-04-24T02:15:54;15.50;99.90
12604;DHT22;6367;52.508;13.284;2023-04-24T02:18:20;15.50;99.90
12604;DHT22;6367;52.508;13.284;2023-04-24T02:20:46;15.50;99.90
12604;DHT22;6367;52.508;13.284;2023-04-24T02:23:11;15.60;99.90
12604;DHT22;6367;52.508;13.284;2023-04-24T02:25:38;15.50;99.90
12604;DHT22;6367;52.508;13.284;2023-04-24T02:28:04;15.60;99.90
12604;DHT22;6367;52.508;13.284;2023-04-24T02:30:30;15.60;99.90
12604;DHT22;6367;52.508;13.284;2023-04-24T02:32:56;15.50;99.90
12604;DHT22;6367;52.508;13.284;2023-04-24T02:35:21;15.60;99.90
12604;DHT22;6367;52.508;13.284;2023-04-24T02:37:47;15.50;99.90
12604;DHT22;6367;52.508;13.284;2023-04-24T02:40:13;15.50;99.90
12604;DHT22;6367;52.508;13.284;2023-04-24T02:42:38;15.40;99.90
12604;DHT22;6367;52.508;13.284;2023-04-24T02:45:04;15.40;99.90
12604;DHT22;6367;52.508;13.284;2023-04-24T02:47:30;15.40;99.90
12604;DHT22;6367;52.508;13.284;2023-04-24T02:49:56;15.40;99.90
12604;DHT22;6367;52.508;13.284;2023-04-24T02:52:21;15.40;99.90
12604;DHT22;6367;52.508;13.284;2023-04-24T02:54:47;15.40;99.90
12604;DHT22;6367;52.508;13.284;2023-04-24T02:57:13;15.40;99.90
12604;DHT22;6367;52.508;13.284;2023-04-24T02:59:38;15.40;99.90
12604;DHT22;6367;52.508;13.284;2023-04-24T03:02:04;15.40;99.90
12604;DHT22;6367;52.508;13.284;2023-04-24T03:04:32;15.30;99.90
12604;DHT22;6367;52.508;13.284;2023-04-24T03:06:58;15.40;99.90
12604;DHT22;6367;52.508;13.284;2023-04-24T03:09:24;15.30;99.90
12604;DHT22;6367;52.508;13.284;2023-04-24T03:11:49;15.30;99.90
12604;DHT22;6367;52.508;13.284;2023-04-24T03:14:16;15.30;99.90
12604;DHT22;6367;52.508;13.284;2023-04-24T03:16:42;15.20;99.90
12604;DHT22;6367;52.508;13.284;2023-04-24T03:19:08;15.30;99.90
12604;DHT22;6367;52.508;13.284;2023-04-24T03:21:33;15.30;99.90
12604;DHT22;6367;52.508;13.284;2023-04-24T03:24:01;15.30;99.90
12604;DHT22;6367;52.508;13.284;2023-04-24T03:26:27;15.30;99.90
12604;DHT22;6367;52.508;13.284;2023-04-24T03:28:53;15.30;99.90
12604;DHT22;6367;52.508;13.284;2023-04-24T03:31:18;15.40;99.90
12604;DHT22;6367;52.508;13.284;2023-04-24T03:33:46;15.40;99.90
12604;DHT22;6367;52.508;13.284;2023-04-24T03:36:12;15.40;99.90
12604;DHT22;6367;52.508;13.284;2023-04-24T03:38:37;15.40;99.90
12604;DHT22;6367;52.508;13.284;2023-04-24T03:41:03;15.40;99.90
12604;DHT22;6367;52.508;13.284;2023-04-24T03:43:29;15.40;99.90
12604;DHT22;6367;52.508;13.284;2023-04-24T03:45:54;15.50;99.90
12604;DHT22;6367;52.508;13.284;2023-04-24T03:48:20;15.50;99.90
12604;DHT22;6367;52.508;13.284;2023-04-24T03:50:46;15.40;99.90
12604;DHT22;6367;52.508;13.284;2023-04-24T03:53:11;15.50;99.90
12604;DHT22;6367;52.508;13.284;2023-04-24T03:55:37;15.50;99.90
12604;DHT22;6367;52.508;13.284;2023-04-24T03:58:03;15.50;99.90
12604;DHT22;6367;52.508;13.284;2023-04-24T04:00:28;15.50;99.90
12604;DHT22;6367;52.508;13.284;2023-04-24T04:02:58;15.50;99.90
12604;DHT22;6367;52.508;13.284;2023-04-24T04:05:24;15.50;99.90
12604;DHT22;6367;52.508;13.284;2023-04-24T04:07:49;15.50;99.90
12604;DHT22;6367;52.508;13.284;2023-04-24T04:10:15;15.50;99.90
12604;DHT22;6367;52.508;13.284;2023-04-24T04:12:42;15.50;99.90
12604;DHT22;6367;52.508;13.284;2023-04-24T04:15:08;15.50;99.90
12604;DHT22;6367;52.508;13.284;2023-04-24T04:17:34;15.50;99.90
12604;DHT22;6367;52.508;13.284;2023-04-24T04:19:59;15.50;99.90
12604;DHT22;6367;52.508;13.284;2023-04-24T04:22:25;15.60;99.90
12604;DHT22;6367;52.508;13.284;2023-04-24T04:24:51;15.60;99.90
12604;DHT22;6367;52.508;13.284;2023-04-24T04:27:16;15.60;99.90
12604;DHT22;6367;52.508;13.284;2023-04-24T04:29:44;15.50;99.90
12604;DHT22;6367;52.508;13.284;2023-04-24T04:32:10;15.50;99.90
12604;DHT22;6367;52.508;13.284;2023-04-24T04:34:35;15.50;99.90
12604;DHT22;6367;52.508;13.284;2023-04-24T04:37:03;15.50;99.90
12604;DHT22;6367;52.508;13.284;2023-04-24T04:39:29;15.60;99.90
12604;DHT22;6367;52.508;13.284;2023-04-24T04:41:55;15.60;99.90
12604;DHT22;6367;52.508;13.284;2023-04-24T04:44:21;15.70;99.90
12604;DHT22;6367;52.508;13.284;2023-04-24T04:46:47;15.70;99.90
12604;DHT22;6367;52.508;13.284;2023-04-24T04:49:13;15.70;99.90
12604;DHT22;6367;52.508;13.284;2023-04-24T04:51:42;15.70;99.90
12604;DHT22;6367;52.508;13.284;2023-04-24T04:54:07;15.70;99.90
12604;DHT22;6367;52.508;13.284;2023-04-24T04:56:33;15.70;99.90
12604;DHT22;6367;52.508;13.284;2023-04-24T04:58:59;15.70;99.90
12604;DHT22;6367;52.508;13.284;2023-04-24T05:01:25;15.70;99.90
12604;DHT22;6367;52.508;13.284;2023-04-24T05:03:52;15.60;99.90
12604;DHT22;6367;52.508;13.284;2023-04-24T05:06:18;15.60;99.90
12604;DHT22;6367;52.508;13.284;2023-04-24T05:08:44;15.70;99.90
12604;DHT22;6367;52.508;13.284;2023-04-24T05:11:10;15.70;99.90
12604;DHT22;6367;52.508;13.284;2023-04-24T05:13:35;15.70;99.90
12604;DHT22;6367;52.508;13.284;2023-04-24T05:16:01;15.70;99.90
12604;DHT22;6367;52.508;13.284;2023-04-24T05:18:26;15.80;99.90
12604;DHT22;6367;52.508;13.284;2023-04-24T05:20:52;15.80;99.90
12604;DHT22;6367;52.508;13.284;2023-04-24T05:23:18;15.80;99.90
12604;DHT22;6367;52.508;13.284;2023-04-24T05:25:43;15.80;99.90
12604;DHT22;6367;52.508;13.284;2023-04-24T05:28:09;15.90;99.90
12604;DHT22;6367;52.508;13.284;2023-04-24T05:30:34;15.80;99.90
12604;DHT22;6367;52.508;13.284;2023-04-24T05:33:01;15.80;99.90
12604;DHT22;6367;52.508;13.284;2023-04-24T05:35:28;15.90;99.90
12604;DHT22;6367;52.508;13.284;2023-04-24T05:37:54;16.30;99.90
12604;DHT22;6367;52.508;13.284;2023-04-24T05:40:20;15.90;99.90
12604;DHT22;6367;52.508;13.284;2023-04-24T05:42:45;15.80;99.90
12604;DHT22;6367;52.508;13.284;2023-04-24T05:45:11;15.80;99.90
12604;DHT22;6367;52.508;13.284;2023-04-24T05:47:42;15.80;99.90
12604;DHT22;6367;52.508;13.284;2023-04-24T05:50:09;15.90;99.90
12604;DHT22;6367;52.508;13.284;2023-04-24T05:52:35;16.00;99.90
12604;DHT22;6367;52.508;13.284;2023-04-24T05:55:00;16.00;99.90
12604;DHT22;6367;52.508;13.284;2023-04-24T05:57:26;16.10;99.90
12604;DHT22;6367;52.508;13.284;2023-04-24T05:59:52;16.10;99.90
12604;DHT22;6367;52.508;13.284;2023-04-24T06:02:18;16.20;99.90
12604;DHT22;6367;52.508;13.284;2023-04-24T06:04:44;16.30;99.90
12604;DHT22;6367;52.508;13.284;2023-04-24T06:07:11;16.30;99.90
12604;DHT22;6367;52.508;13.284;2023-04-24T06:09:36;16.40;99.90
12604;DHT22;6367;52.508;13.284;2023-04-24T06:12:02;16.40;99.90
12604;DHT22;6367;52.508;13.284;2023-04-24T06:14:28;16.60;99.90
12604;DHT22;6367;52.508;13.284;2023-04-24T06:16:54;16.60;99.90
12604;DHT22;6367;52.508;13.284;2023-04-24T06:19:20;16.60;99.90
12604;DHT22;6367;52.508;13.284;2023-04-24T06:21:45;16.70;99.90
12604;DHT22;6367;52.508;13.284;2023-04-24T06:24:14;16.80;99.90
12604;DHT22;6367;52.508;13.284;2023-04-24T06:26:39;16.90;99.90
12604;DHT22;6367;52.508;13.284;2023-04-24T06:29:06;17.00;99.90
12604;DHT22;6367;52.508;13.284;2023-04-24T06:31:32;17.10;99.90
12604;DHT22;6367;52.508;13.284;2023-04-24T06:34:02;17.20;99.90
12604;DHT22;6367;52.508;13.284;2023-04-24T06:36:28;17.40;99.90
12604;DHT22;6367;52.508;13.284;2023-04-24T06:38:54;17.60;99.90
12604;DHT22;6367;52.508;13.284;2023-04-24T06:41:20;17.80;99.70
12604;DHT22;6367;52.508;13.284;2023-04-24T06:43:45;18.00;99.50
12604;DHT22;6367;52.508;13.284;2023-04-24T06:46:11;18.10;98.90
12604;DHT22;6367;52.508;13.284;2023-04-24T06:48:37;18.20;99.00
12604;DHT22;6367;52.508;13.284;2023-04-24T06:51:03;18.20;98.60
12604;DHT22;6367;52.508;13.284;2023-04-24T06:53:28;18.40;98.00
12604;DHT22;6367;52.508;13.284;2023-04-24T06:55:54;18.40;98.00
12604;DHT22;6367;52.508;13.284;2023-04-24T06:58:20;18.40;97.40
12604;DHT22;6367;52.508;13.284;2023-04-24T07:00:45;18.40;97.70
12604;DHT22;6367;52.508;13.284;2023-04-24T07:03:11;18.50;97.20
12604;DHT22;6367;52.508;13.284;2023-04-24T07:05:37;18.50;97.30
12604;DHT22;6367;52.508;13.284;2023-04-24T07:08:03;18.60;97.50
12604;DHT22;6367;52.508;13.284;2023-04-24T07:10:29;18.70;97.90
12604;DHT22;6367;52.508;13.284;2023-04-24T07:12:55;18.80;97.20
12604;DHT22;6367;52.508;13.284;2023-04-24T07:15:22;18.90;97.20
12604;DHT22;6367;52.508;13.284;2023-04-24T07:17:48;19.00;96.80
12604;DHT22;6367;52.508;13.284;2023-04-24T07:20:14;19.10;96.50
12604;DHT22;6367;52.508;13.284;2023-04-24T07:22:40;19.10;96.10
12604;DHT22;6367;52.508;13.284;2023-04-24T07:25:07;19.10;96.00
12604;DHT22;6367;52.508;13.284;2023-04-24T07:27:33;19.00;95.60
12604;DHT22;6367;52.508;13.284;2023-04-24T07:30:00;19.00;95.50
12604;DHT22;6367;52.508;13.284;2023-04-24T07:32:26;19.00;95.50
12604;DHT22;6367;52.508;13.284;2023-04-24T07:34:51;19.10;95.50
12604;DHT22;6367;52.508;13.284;2023-04-24T07:37:17;19.00;95.10
12604;DHT22;6367;52.508;13.284;2023-04-24T07:39:43;19.10;95.40
12604;DHT22;6367;52.508;13.284;2023-04-24T07:42:08;19.20;95.40
12604;DHT22;6367;52.508;13.284;2023-04-24T07:44:34;19.40;94.70
12604;DHT22;6367;52.508;13.284;2023-04-24T07:47:01;19.50;94.60
12604;DHT22;6367;52.508;13.284;2023-04-24T07:49:27;19.60;94.40
12604;DHT22;6367;52.508;13.284;2023-04-24T07:51:53;19.70;93.80
12604;DHT22;6367;52.508;13.284;2023-04-24T07:54:18;19.70;93.80
12604;DHT22;6367;52.508;13.284;2023-04-24T07:56:44;19.60;93.10
12604;DHT22;6367;52.508;13.284;2023-04-24T07:59:10;20.10;93.20
12604;DHT22;6367;52.508;13.284;2023-04-24T08:01:36;20.40;92.60
12604;DHT22;6367;52.508;13.284;2023-04-24T08:04:02;20.70;92.10
12604;DHT22;6367;52.508;13.284;2023-04-24T08:06:29;20.70;91.20
12604;DHT22;6367;52.508;13.284;2023-04-24T08:08:59;20.90;91.20
12604;DHT22;6367;52.508;13.284;2023-04-24T08:11:25;21.10;90.00
12604;DHT22;6367;52.508;13.284;2023-04-24T08:13:51;20.90;88.70
12604;DHT22;6367;52.508;13.284;2023-04-24T08:16:16;20.90;90.10
12604;DHT22;6367;52.508;13.284;2023-04-24T08:18:42;21.00;88.10
12604;DHT22;6367;52.508;13.284;2023-04-24T08:21:07;20.80;88.50
12604;DHT22;6367;52.508;13.284;2023-04-24T08:23:33;20.80;89.70
12604;DHT22;6367;52.508;13.284;2023-04-24T08:25:59;20.90;89.40
12604;DHT22;6367;52.508;13.284;2023-04-24T08:28:25;20.70;88.00
12604;DHT22;6367;52.508;13.284;2023-04-24T08:30:51;20.60;88.50
12604;DHT22;6367;52.508;13.284;2023-04-24T08:33:21;20.40;87.50
12604;DHT22;6367;52.508;13.284;2023-04-24T08:35:46;20.30;88.40
12604;DHT22;6367;52.508;13.284;2023-04-24T08:38:12;20.30;89.00
12604;DHT22;6367;52.508;13.284;2023-04-24T08:40:38;20.20;88.80
12604;DHT22;6367;52.508;13.284;2023-04-24T08:43:04;20.20;89.30
12604;DHT22;6367;52.508;13.284;2023-04-24T08:45:30;20.30;89.60
12604;DHT22;6367;52.508;13.284;2023-04-24T08:47:58;20.30;89.40
12604;DHT22;6367;52.508;13.284;2023-04-24T08:50:25;20.40;89.10
12604;DHT22;6367;52.508;13.284;2023-04-24T08:52:51;20.40;89.30
12604;DHT22;6367;52.508;13.284;2023-04-24T08:55:20;20.50;89.30
12604;DHT22;6367;52.508;13.284;2023-04-24T08:57:50;20.50;88.70
12604;DHT22;6367;52.508;13.284;2023-04-24T09:00:17;20.50;89.10
12604;DHT22;6367;52.508;13.284;2023-04-24T09:02:43;20.40;89.20
12604;DHT22;6367;52.508;13.284;2023-04-24T09:05:10;20.30;89.00
12604;DHT22;6367;52.508;13.284;2023-04-24T09:07:39;20.30;88.30
12604;DHT22;6367;52.508;13.284;2023-04-24T09:10:07;20.30;87.80
12604;DHT22;6367;52.508;13.284;2023-04-24T09:12:34;20.30;88.00
12604;DHT22;6367;52.508;13.284;2023-04-24T09:15:00;20.20;88.30
12604;DHT22;6367;52.508;13.284;2023-04-24T09:17:29;20.00;88.40
12604;DHT22;6367;52.508;13.284;2023-04-24T09:19:55;19.90;89.30
12604;DHT22;6367;52.508;13.284;2023-04-24T09:22:21;19.90;89.90
12604;DHT22;6367;52.508;13.284;2023-04-24T09:24:47;20.00;90.10
12604;DHT22;6367;52.508;13.284;2023-04-24T09:27:13;20.00;90.20
12604;DHT22;6367;52.508;13.284;2023-04-24T09:29:53;20.00;90.60
12604;DHT22;6367;52.508;13.284;2023-04-24T09:32:21;20.10;90.90
12604;DHT22;6367;52.508;13.284;2023-04-24T09:34:48;20.30;90.80
12604;DHT22;6367;52.508;13.284;2023-04-24T09:37:30;20.30;91.00
12604;DHT22;6367;52.508;13.284;2023-04-24T09:42:38;20.20;91.20
12604;DHT22;6367;52.508;13.284;2023-04-24T09:45:09;20.20;90.80
12604;DHT22;6367;52.508;13.284;2023-04-24T09:47:39;20.20;91.00
12604;DHT22;6367;52.508;13.284;2023-04-24T09:50:12;20.10;90.90
12604;DHT22;6367;52.508;13.284;2023-04-24T09:52:46;20.00;90.80
12604;DHT22;6367;52.508;13.284;2023-04-24T09:55:18;20.00;91.10
12604;DHT22;6367;52.508;13.284;2023-04-24T09:57:58;20.00;90.90
12604;DHT22;6367;52.508;13.284;2023-04-24T10:00:27;20.00;90.90
12604;DHT22;6367;52.508;13.284;2023-04-24T10:03:00;20.00;91.00
12604;DHT22;6367;52.508;13.284;2023-04-24T10:05:33;19.90;91.00
12604;DHT22;6367;52.508;13.284;2023-04-24T10:08:04;20.00;91.30
12604;DHT22;6367;52.508;13.284;2023-04-24T10:10:31;20.20;91.20
12604;DHT22;6367;52.508;13.284;2023-04-24T10:12:57;20.40;91.10
12604;DHT22;6367;52.508;13.284;2023-04-24T10:15:23;20.60;90.70
12604;DHT22;6367;52.508;13.284;2023-04-24T10:17:51;20.70;90.40
12604;DHT22;6367;52.508;13.284;2023-04-24T10:20:25;20.70;90.20
12604;DHT22;6367;52.508;13.284;2023-04-24T10:22:53;20.60;90.20
12604;DHT22;6367;52.508;13.284;2023-04-24T10:25:21;20.50;90.20
12604;DHT22;6367;52.508;13.284;2023-04-24T10:27:47;20.50;90.30
12604;DHT22;6367;52.508;13.284;2023-04-24T10:30:14;20.40;90.40
12604;DHT22;6367;52.508;13.284;2023-04-24T10:32:40;20.40;90.50
12604;DHT22;6367;52.508;13.284;2023-04-24T10:35:10;20.30;90.70
12604;DHT22;6367;52.508;13.284;2023-04-24T10:37:39;20.30;90.60
12604;DHT22;6367;52.508;13.284;2023-04-24T10:40:07;20.20;90.40
12604;DHT22;6367;52.508;13.284;2023-04-24T10:42:34;20.10;90.40
12604;DHT22;6367;52.508;13.284;2023-04-24T10:45:04;20.00;90.50
12604;DHT22;6367;52.508;13.284;2023-04-24T10:47:30;19.90;90.70
12604;DHT22;6367;52.508;13.284;2023-04-24T10:50:09;19.80;90.90
12604;DHT22;6367;52.508;13.284;2023-04-24T10:52:48;19.60;91.10
12604;DHT22;6367;52.508;13.284;2023-04-24T10:55:16;19.50;91.40
12604;DHT22;6367;52.508;13.284;2023-04-24T10:58:01;19.50;91.60
12604;DHT22;6367;52.508;13.284;2023-04-24T11:00:28;19.50;91.60
12604;DHT22;6367;52.508;13.284;2023-04-24T11:02:53;19.70;91.60
12604;DHT22;6367;52.508;13.284;2023-04-24T11:05:21;19.80;91.10
12604;DHT22;6367;52.508;13.284;2023-04-24T11:10:44;20.00;90.50
12604;DHT22;6367;52.508;13.284;2023-04-24T11:13:10;19.90;90.40
12604;DHT22;6367;52.508;13.284;2023-04-24T11:15:36;19.90;90.60
12604;DHT22;6367;52.508;13.284;2023-04-24T11:18:01;20.00;90.40
12604;DHT22;6367;52.508;13.284;2023-04-24T11:20:27;19.90;90.30
12604;DHT22;6367;52.508;13.284;2023-04-24T11:22:54;19.90;90.40
12604;DHT22;6367;52.508;13.284;2023-04-24T11:25:23;20.00;90.20
12604;DHT22;6367;52.508;13.284;2023-04-24T11:27:49;20.00;90.50
12604;DHT22;6367;52.508;13.284;2023-04-24T11:30:19;20.10;91.10
12604;DHT22;6367;52.508;13.284;2023-04-24T11:32:48;19.90;91.90
12604;DHT22;6367;52.508;13.284;2023-04-24T11:35:19;19.80;92.60
12604;DHT22;6367;52.508;13.284;2023-04-24T11:37:48;19.60;93.20
12604;DHT22;6367;52.508;13.284;2023-04-24T11:40:15;19.40;94.00
12604;DHT22;6367;52.508;13.284;2023-04-24T11:42:45;19.30;94.90
12604;DHT22;6367;52.508;13.284;2023-04-24T11:45:13;19.10;95.90
12604;DHT22;6367;52.508;13.284;2023-04-24T11:47:40;19.00;96.20
12604;DHT22;6367;52.508;13.284;2023-04-24T11:50:08;19.00;96.60
12604;DHT22;6367;52.508;13.284;2023-04-24T11:52:39;19.10;97.20
12604;DHT22;6367;52.508;13.284;2023-04-24T11:57:49;19.30;98.50
12604;DHT22;6367;52.508;13.284;2023-04-24T12:00:17;19.40;98.60
12604;DHT22;6367;52.508;13.284;2023-04-24T12:02:44;19.10;97.90
12604;DHT22;6367;52.508;13.284;2023-04-24T12:05:26;19.70;97.90
12604;DHT22;6367;52.508;13.284;2023-04-24T12:07:54;19.90;96.90
12604;DHT22;6367;52.508;13.284;2023-04-24T12:10:21;20.10;96.10
12604;DHT22;6367;52.508;13.284;2023-04-24T12:12:47;20.20;94.10
12604;DHT22;6367;52.508;13.284;2023-04-24T12:15:16;20.20;93.50
12604;DHT22;6367;52.508;13.284;2023-04-24T12:17:42;20.10;93.30
12604;DHT22;6367;52.508;13.284;2023-04-24T12:20:09;20.10;93.50
12604;DHT22;6367;52.508;13.284;2023-04-24T12:25:18;20.30;93.60
12604;DHT22;6367;52.508;13.284;2023-04-24T12:27:45;20.50;92.70
12604;DHT22;6367;52.508;13.284;2023-04-24T12:30:16;20.60;91.50
12604;DHT22;6367;52.508;13.284;2023-04-24T12:32:44;20.80;90.60
12604;DHT22;6367;52.508;13.284;2023-04-24T12:35:10;21.10;84.50
12604;DHT22;6367;52.508;13.284;2023-04-24T12:37:36;21.20;81.90
12604;DHT22;6367;52.508;13.284;2023-04-24T12:40:07;21.20;80.10
12604;DHT22;6367;52.508;13.284;2023-04-24T12:42:34;21.20;80.10
12604;DHT22;6367;52.508;13.284;2023-04-24T12:45:05;21.10;80.30
12604;DHT22;6367;52.508;13.284;2023-04-24T12:47:32;21.10;81.20
12604;DHT22;6367;52.508;13.284;2023-04-24T12:49:58;21.10;81.40
12604;DHT22;6367;52.508;13.284;2023-04-24T12:52:25;21.10;80.50
12604;DHT22;6367;52.508;13.284;2023-04-24T12:54:53;21.00;79.10
12604;DHT22;6367;52.508;13.284;2023-04-24T12:57:19;21.10;80.20
12604;DHT22;6367;52.508;13.284;2023-04-24T12:59:45;21.10;81.90
12604;DHT22;6367;52.508;13.284;2023-04-24T13:02:11;21.20;82.90
12604;DHT22;6367;52.508;13.284;2023-04-24T13:04:37;21.20;83.10
12604;DHT22;6367;52.508;13.284;2023-04-24T13:07:03;21.10;80.60
12604;DHT22;6367;52.508;13.284;2023-04-24T13:09:28;21.00;78.30
12604;DHT22;6367;52.508;13.284;2023-04-24T13:11:55;20.90;78.30
12604;DHT22;6367;52.508;13.284;2023-04-24T13:14:21;20.90;78.40
12604;DHT22;6367;52.508;13.284;2023-04-24T13:16:47;21.00;76.50
12604;DHT22;6367;52.508;13.284;2023-04-24T13:19:13;21.00;77.00
12604;DHT22;6367;52.508;13.284;2023-04-24T13:21:38;21.00;77.50
12604;DHT22;6367;52.508;13.284;2023-04-24T13:24:04;21.00;77.70
12604;DHT22;6367;52.508;13.284;2023-04-24T13:26:31;21.00;77.50
12604;DHT22;6367;52.508;13.284;2023-04-24T13:28:56;20.80;76.30
12604;DHT22;6367;52.508;13.284;2023-04-24T13:31:22;20.80;76.20
12604;DHT22;6367;52.508;13.284;2023-04-24T13:33:48;20.70;77.00
12604;DHT22;6367;52.508;13.284;2023-04-24T13:36:13;20.70;76.70
12604;DHT22;6367;52.508;13.284;2023-04-24T13:38:39;20.70;78.20
12604;DHT22;6367;52.508;13.284;2023-04-24T13:41:05;20.00;79.30
12604;DHT22;6367;52.508;13.284;2023-04-24T13:43:30;21.00;75.70
12604;DHT22;6367;52.508;13.284;2023-04-24T13:45:58;21.00;72.80
12604;DHT22;6367;52.508;13.284;2023-04-24T13:48:24;21.00;72.40
12604;DHT22;6367;52.508;13.284;2023-04-24T13:50:50;21.00;71.50
12604;DHT22;6367;52.508;13.284;2023-04-24T13:53:16;20.80;71.40
12604;DHT22;6367;52.508;13.284;2023-04-24T13:55:42;20.80;73.00
12604;DHT22;6367;52.508;13.284;2023-04-24T13:58:07;20.80;73.30
12604;DHT22;6367;52.508;13.284;2023-04-24T14:00:33;20.80;71.20
12604;DHT22;6367;52.508;13.284;2023-04-24T14:02:59;20.70;71.50
12604;DHT22;6367;52.508;13.284;2023-04-24T14:05:25;20.70;72.10
12604;DHT22;6367;52.508;13.284;2023-04-24T14:07:51;20.60;73.00
12604;DHT22;6367;52.508;13.284;2023-04-24T14:10:17;20.60;73.50
12604;DHT22;6367;52.508;13.284;2023-04-24T14:12:42;20.70;72.80
12604;DHT22;6367;52.508;13.284;2023-04-24T14:15:08;20.70;70.30
12604;DHT22;6367;52.508;13.284;2023-04-24T14:17:34;20.70;68.70
12604;DHT22;6367;52.508;13.284;2023-04-24T14:20:00;20.70;69.10
12604;DHT22;6367;52.508;13.284;2023-04-24T14:22:26;20.80;68.50
12604;DHT22;6367;52.508;13.284;2023-04-24T14:24:51;20.80;68.20
12604;DHT22;6367;52.508;13.284;2023-04-24T14:27:17;20.80;67.70
12604;DHT22;6367;52.508;13.284;2023-04-24T14:29:43;20.80;68.40
12604;DHT22;6367;52.508;13.284;2023-04-24T14:32:10;20.80;67.70
12604;DHT22;6367;52.508;13.284;2023-04-24T14:34:36;20.80;68.20
12604;DHT22;6367;52.508;13.284;2023-04-24T14:37:02;20.90;68.10
12604;DHT22;6367;52.508;13.284;2023-04-24T14:39:28;20.00;67.20
12604;DHT22;6367;52.508;13.284;2023-04-24T14:41:54;20.90;68.30
12604;DHT22;6367;52.508;13.284;2023-04-24T14:44:20;21.00;67.90
12604;DHT22;6367;52.508;13.284;2023-04-24T14:46:46;20.90;68.20
12604;DHT22;6367;52.508;13.284;2023-04-24T14:49:11;20.80;67.00
12604;DHT22;6367;52.508;13.284;2023-04-24T14:51:37;20.10;66.10
12604;DHT22;6367;52.508;13.284;2023-04-24T14:54:03;20.70;66.90
12604;DHT22;6367;52.508;13.284;2023-04-24T14:56:29;20.70;67.40
12604;DHT22;6367;52.508;13.284;2023-04-24T14:58:55;20.70;67.80
12604;DHT22;6367;52.508;13.284;2023-04-24T15:01:21;20.60;68.00
12604;DHT22;6367;52.508;13.284;2023-04-24T15:03:47;20.50;68.90
12604;DHT22;6367;52.508;13.284;2023-04-24T15:06:12;20.40;68.70
12604;DHT22;6367;52.508;13.284;2023-04-24T15:08:38;20.40;68.70
12604;DHT22;6367;52.508;13.284;2023-04-24T15:11:04;20.30;69.00
12604;DHT22;6367;52.508;13.284;2023-04-24T15:13:30;20.20;68.60
12604;DHT22;6367;52.508;13.284;2023-04-24T15:15:55;20.20;68.30
12604;DHT22;6367;52.508;13.284;2023-04-24T15:18:21;19.90;70.00
12604;DHT22;6367;52.508;13.284;2023-04-24T15:20:47;20.20;69.20
12604;DHT22;6367;52.508;13.284;2023-04-24T15:23:12;20.10;69.10
12604;DHT22;6367;52.508;13.284;2023-04-24T15:25:38;20.10;68.40
12604;DHT22;6367;52.508;13.284;2023-04-24T15:28:04;20.20;67.80
12604;DHT22;6367;52.508;13.284;2023-04-24T15:30:30;20.00;68.00
12604;DHT22;6367;52.508;13.284;2023-04-24T15:32:56;19.90;68.50
12604;DHT22;6367;52.508;13.284;2023-04-24T15:35:22;19.90;69.20
12604;DHT22;6367;52.508;13.284;2023-04-24T15:37:48;19.90;69.60